sensor_id;sensor_type;location;lat;lon;timestamp;pressure;altitude;pressure_sealevel;temperature;humidity
8294;BME280;4185;41.506;24.938;2023-01-26T00:02:17;94025.81;;;-0.93;83.33
8294;BME280;4185;41.506;24.938;2023-01-26T00:04:44;94031.81;;;-0.85;83.66
8294;BME280;4185;41.506;24.938;2023-01-26T00:07:11;94034.84;;;-0.83;83.11
8294;BME280;4185;41.506;24.938;2023-01-26T00:09:38;94030.66;;;-0.84;83.81
8294;BME280;4185;41.506;24.938;2023-01-26T00:12:05;94034.09;;;-0.84;83.41
8294;BME280;4185;41.506;24.938;2023-01-26T00:14:32;94028.66;;;-0.77;83.28
8294;BME280;4185;41.506;24.938;2023-01-26T00:17:16;94030.16;;;-0.76;82.22
8294;BME280;4185;41.506;24.938;2023-01-26T00:19:51;94027.81;;;-0.70;82.43
8294;BME280;4185;41.506;24.938;2023-01-26T00:22:18;94020.16;;;-0.68;82.09
8294;BME280;4185;41.506;24.938;2023-01-26T00:24:45;94018.31;;;-0.71;82.48
8294;BME280;4185;41.506;24.938;2023-01-26T00:27:12;94017.91;;;-0.70;83.14
8294;BME280;4185;41.506;24.938;2023-01-26T00:29:38;94016.38;;;-0.71;82.14
8294;BME280;4185;41.506;24.938;2023-01-26T00:32:05;94021.75;;;-0.74;82.21
8294;BME280;4185;41.506;24.938;2023-01-26T00:34:33;94013.56;;;-0.87;81.94
8294;BME280;4185;41.506;24.938;2023-01-26T00:37:01;94014.41;;;-0.93;82.06
8294;BME280;4185;41.506;24.938;2023-01-26T00:39:27;94012.53;;;-0.96;82.86
8294;BME280;4185;41.506;24.938;2023-01-26T00:41:54;94004.91;;;-0.98;82.96
8294;BME280;4185;41.506;24.938;2023-01-26T00:44:38;94005.28;;;-0.96;83.12
8294;BME280;4185;41.506;24.938;2023-01-26T00:47:06;94001.06;;;-0.93;82.82
8294;BME280;4185;41.506;24.938;2023-01-26T00:49:35;93990.69;;;-0.88;82.93
8294;BME280;4185;41.506;24.938;2023-01-26T00:52:02;94001.72;;;-0.86;82.57
8294;BME280;4185;41.506;24.938;2023-01-26T00:54:29;93987.66;;;-0.86;83.34
8294;BME280;4185;41.506;24.938;2023-01-26T00:56:56;94001.94;;;-0.73;83.13
8294;BME280;4185;41.506;24.938;2023-01-26T00:59:23;94011.44;;;-0.72;82.59
8294;BME280;4185;41.506;24.938;2023-01-26T01:01:50;94002.03;;;-0.80;82.25
8294;BME280;4185;41.506;24.938;2023-01-26T01:04:17;94004.38;;;-0.86;82.83
8294;BME280;4185;41.506;24.938;2023-01-26T01:06:46;94002.84;;;-0.83;83.10
8294;BME280;4185;41.506;24.938;2023-01-26T01:09:12;93988.59;;;-1.00;82.90
8294;BME280;4185;41.506;24.938;2023-01-26T01:11:39;94014.34;;;-0.90;83.20
8294;BME280;4185;41.506;24.938;2023-01-26T01:14:08;94000.63;;;-0.88;83.42
8294;BME280;4185;41.506;24.938;2023-01-26T01:16:35;93999.06;;;-0.86;83.49
8294;BME280;4185;41.506;24.938;2023-01-26T01:19:01;93998.69;;;-0.88;83.64
8294;BME280;4185;41.506;24.938;2023-01-26T01:21:28;94000.59;;;-0.85;83.54
8294;BME280;4185;41.506;24.938;2023-01-26T01:23:57;93993.63;;;-0.79;83.09
8294;BME280;4185;41.506;24.938;2023-01-26T01:26:24;93991.31;;;-0.77;83.03
8294;BME280;4185;41.506;24.938;2023-01-26T01:28:53;93990.56;;;-0.77;83.20
8294;BME280;4185;41.506;24.938;2023-01-26T01:31:20;93978.84;;;-0.83;83.15
8294;BME280;4185;41.506;24.938;2023-01-26T01:33:47;93992.63;;;-0.88;83.14
8294;BME280;4185;41.506;24.938;2023-01-26T01:36:15;93985.31;;;-0.84;83.25
8294;BME280;4185;41.506;24.938;2023-01-26T01:38:43;93978.44;;;-0.82;83.03
8294;BME280;4185;41.506;24.938;2023-01-26T01:41:12;93976.19;;;-0.83;83.33
8294;BME280;4185;41.506;24.938;2023-01-26T01:43:39;93981.47;;;-0.80;83.98
8294;BME280;4185;41.506;24.938;2023-01-26T01:46:12;93974.97;;;-0.79;83.97
8294;BME280;4185;41.506;24.938;2023-01-26T01:48:46;93965.00;;;-0.75;83.61
8294;BME280;4185;41.506;24.938;2023-01-26T01:51:18;93963.09;;;-0.74;83.05
8294;BME280;4185;41.506;24.938;2023-01-26T01:53:49;93959.69;;;-0.75;82.80
8294;BME280;4185;41.506;24.938;2023-01-26T01:56:21;93957.81;;;-0.78;83.01
8294;BME280;4185;41.506;24.938;2023-01-26T01:58:51;93944.13;;;-0.80;82.92
8294;BME280;4185;41.506;24.938;2023-01-26T02:01:19;93952.09;;;-0.76;83.54
8294;BME280;4185;41.506;24.938;2023-01-26T02:03:48;93945.59;;;-0.75;83.04
8294;BME280;4185;41.506;24.938;2023-01-26T02:06:20;93950.50;;;-0.74;83.09
8294;BME280;4185;41.506;24.938;2023-01-26T02:08:50;93946.75;;;-0.76;82.52
8294;BME280;4185;41.506;24.938;2023-01-26T02:11:23;93955.50;;;-0.76;82.82
8294;BME280;4185;41.506;24.938;2023-01-26T02:13:51;93960.09;;;-0.76;82.93
8294;BME280;4185;41.506;24.938;2023-01-26T02:16:18;93952.50;;;-0.78;82.72
8294;BME280;4185;41.506;24.938;2023-01-26T02:18:45;93945.63;;;-0.79;82.40
8294;BME280;4185;41.506;24.938;2023-01-26T02:21:15;93936.88;;;-0.79;83.14
8294;BME280;4185;41.506;24.938;2023-01-26T02:23:51;93930.44;;;-0.82;83.17
8294;BME280;4185;41.506;24.938;2023-01-26T02:26:24;93928.91;;;-0.83;83.10
8294;BME280;4185;41.506;24.938;2023-01-26T02:28:51;93923.59;;;-0.83;83.37
8294;BME280;4185;41.506;24.938;2023-01-26T02:31:19;93928.13;;;-0.80;83.46
8294;BME280;4185;41.506;24.938;2023-01-26T02:33:47;93925.81;;;-0.78;83.09
8294;BME280;4185;41.506;24.938;2023-01-26T02:36:18;93913.19;;;-0.74;83.50
8294;BME280;4185;41.506;24.938;2023-01-26T02:38:50;93914.56;;;-0.66;83.49
8294;BME280;4185;41.506;24.938;2023-01-26T02:41:18;93907.28;;;-0.62;83.44
8294;BME280;4185;41.506;24.938;2023-01-26T02:44:01;93908.78;;;-0.61;83.74
8294;BME280;4185;41.506;24.938;2023-01-26T02:46:29;93909.13;;;-0.59;83.37
8294;BME280;4185;41.506;24.938;2023-01-26T02:48:55;93908.72;;;-0.57;83.28
8294;BME280;4185;41.506;24.938;2023-01-26T02:51:39;93905.31;;;-0.58;83.25
8294;BME280;4185;41.506;24.938;2023-01-26T02:54:06;93897.31;;;-0.58;82.94
8294;BME280;4185;41.506;24.938;2023-01-26T02:56:33;93906.13;;;-0.61;82.79
8294;BME280;4185;41.506;24.938;2023-01-26T02:59:05;93901.53;;;-0.60;83.00
8294;BME280;4185;41.506;24.938;2023-01-26T03:01:32;93895.16;;;-0.66;82.48
8294;BME280;4185;41.506;24.938;2023-01-26T03:03:58;93883.75;;;-0.67;82.91
8294;BME280;4185;41.506;24.938;2023-01-26T03:06:25;93880.72;;;-0.69;82.92
8294;BME280;4185;41.506;24.938;2023-01-26T03:08:52;93873.53;;;-0.72;83.49
8294;BME280;4185;41.506;24.938;2023-01-26T03:11:19;93867.72;;;-0.67;83.66
8294;BME280;4185;41.506;24.938;2023-01-26T03:13:45;93863.56;;;-0.68;83.27
8294;BME280;4185;41.506;24.938;2023-01-26T03:16:14;93868.09;;;-0.65;82.91
8294;BME280;4185;41.506;24.938;2023-01-26T03:18:42;93881.78;;;-0.63;82.89
8294;BME280;4185;41.506;24.938;2023-01-26T03:21:26;93876.13;;;-0.68;82.95
8294;BME280;4185;41.506;24.938;2023-01-26T03:24:11;93865.53;;;-0.72;83.21
8294;BME280;4185;41.506;24.938;2023-01-26T03:26:55;93866.69;;;-0.73;83.35
8294;BME280;4185;41.506;24.938;2023-01-26T03:29:39;93857.88;;;-0.70;83.45
8294;BME280;4185;41.506;24.938;2023-01-26T03:32:08;93855.16;;;-0.66;83.98
8294;BME280;4185;41.506;24.938;2023-01-26T03:34:34;93860.94;;;-0.71;83.91
8294;BME280;4185;41.506;24.938;2023-01-26T03:37:02;93853.38;;;-0.73;84.25
8294;BME280;4185;41.506;24.938;2023-01-26T03:39:28;93840.75;;;-0.72;84.66
8294;BME280;4185;41.506;24.938;2023-01-26T03:42:13;93842.56;;;-0.66;84.66
8294;BME280;4185;41.506;24.938;2023-01-26T03:44:57;93845.13;;;-0.59;84.53
8294;BME280;4185;41.506;24.938;2023-01-26T03:47:42;93833.72;;;-0.59;84.32
8294;BME280;4185;41.506;24.938;2023-01-26T03:50:26;93840.13;;;-0.57;84.78
8294;BME280;4185;41.506;24.938;2023-01-26T03:53:14;93842.81;;;-0.57;84.60
8294;BME280;4185;41.506;24.938;2023-01-26T03:55:58;93842.81;;;-0.57;84.39
8294;BME280;4185;41.506;24.938;2023-01-26T03:58:47;93839.50;;;-0.64;84.49
8294;BME280;4185;41.506;24.938;2023-01-26T04:01:14;93837.16;;;-0.62;84.38
8294;BME280;4185;41.506;24.938;2023-01-26T04:03:47;93840.94;;;-0.60;84.90
8294;BME280;4185;41.506;24.938;2023-01-26T04:06:32;93819.78;;;-0.70;84.17
8294;BME280;4185;41.506;24.938;2023-01-26T04:09:16;93834.22;;;-0.68;84.87
8294;BME280;4185;41.506;24.938;2023-01-26T04:11:43;93842.56;;;-0.66;84.82
8294;BME280;4185;41.506;24.938;2023-01-26T04:14:13;93837.56;;;-0.64;84.87
8294;BME280;4185;41.506;24.938;2023-01-26T04:16:58;93829.56;;;-0.64;84.17
8294;BME280;4185;41.506;24.938;2023-01-26T04:19:44;93833.41;;;-0.65;84.47
8294;BME280;4185;41.506;24.938;2023-01-26T04:22:29;93830.34;;;-0.63;85.05
8294;BME280;4185;41.506;24.938;2023-01-26T04:24:56;93833.78;;;-0.63;85.00
8294;BME280;4185;41.506;24.938;2023-01-26T04:27:22;93834.19;;;-0.64;85.35
8294;BME280;4185;41.506;24.938;2023-01-26T04:29:49;93826.44;;;-0.59;85.05
8294;BME280;4185;41.506;24.938;2023-01-26T04:32:16;93816.06;;;-0.53;84.99
8294;BME280;4185;41.506;24.938;2023-01-26T04:34:44;93813.34;;;-0.50;84.91
8294;BME280;4185;41.506;24.938;2023-01-26T04:37:11;93817.16;;;-0.51;84.83
8294;BME280;4185;41.506;24.938;2023-01-26T04:39:40;93816.31;;;-0.44;84.78
8294;BME280;4185;41.506;24.938;2023-01-26T04:42:08;93819.28;;;-0.42;85.13
8294;BME280;4185;41.506;24.938;2023-01-26T04:44:35;93810.91;;;-0.41;85.00
8294;BME280;4185;41.506;24.938;2023-01-26T04:47:02;93814.38;;;-0.44;84.82
8294;BME280;4185;41.506;24.938;2023-01-26T04:49:29;93811.03;;;-0.48;85.15
8294;BME280;4185;41.506;24.938;2023-01-26T04:51:57;93814.03;;;-0.46;85.07
8294;BME280;4185;41.506;24.938;2023-01-26T04:54:24;93823.59;;;-0.48;85.33
8294;BME280;4185;41.506;24.938;2023-01-26T04:56:50;93814.94;;;-0.56;85.29
8294;BME280;4185;41.506;24.938;2023-01-26T04:59:17;93810.44;;;-0.59;86.06
8294;BME280;4185;41.506;24.938;2023-01-26T05:01:44;93810.38;;;-0.55;85.95
8294;BME280;4185;41.506;24.938;2023-01-26T05:04:11;93814.84;;;-0.49;85.86
8294;BME280;4185;41.506;24.938;2023-01-26T05:06:38;93804.94;;;-0.48;85.60
8294;BME280;4185;41.506;24.938;2023-01-26T05:09:07;93808.00;;;-0.50;85.91
8294;BME280;4185;41.506;24.938;2023-01-26T05:11:34;93802.59;;;-0.46;85.75
8294;BME280;4185;41.506;24.938;2023-01-26T05:14:01;93801.03;;;-0.44;85.34
8294;BME280;4185;41.506;24.938;2023-01-26T05:16:28;93806.72;;;-0.42;85.71
8294;BME280;4185;41.506;24.938;2023-01-26T05:18:55;93801.84;;;-0.47;85.64
8294;BME280;4185;41.506;24.938;2023-01-26T05:21:21;93804.97;;;-0.52;85.98
8294;BME280;4185;41.506;24.938;2023-01-26T05:23:52;93806.56;;;-0.54;86.70
8294;BME280;4185;41.506;24.938;2023-01-26T05:26:20;93803.50;;;-0.53;86.70
8294;BME280;4185;41.506;24.938;2023-01-26T05:28:46;93816.81;;;-0.53;86.80
8294;BME280;4185;41.506;24.938;2023-01-26T05:31:13;93814.91;;;-0.52;87.12
8294;BME280;4185;41.506;24.938;2023-01-26T05:33:40;93816.41;;;-0.51;87.07
8294;BME280;4185;41.506;24.938;2023-01-26T05:36:07;93817.09;;;-0.47;86.99
8294;BME280;4185;41.506;24.938;2023-01-26T05:38:34;93818.97;;;-0.44;87.36
8294;BME280;4185;41.506;24.938;2023-01-26T05:41:01;93818.56;;;-0.43;87.79
8294;BME280;4185;41.506;24.938;2023-01-26T05:43:29;93818.56;;;-0.43;87.89
8294;BME280;4185;41.506;24.938;2023-01-26T05:45:56;93808.28;;;-0.44;88.59
8294;BME280;4185;41.506;24.938;2023-01-26T05:48:23;93805.63;;;-0.44;88.52
8294;BME280;4185;41.506;24.938;2023-01-26T05:50:50;93797.94;;;-0.42;88.78
8294;BME280;4185;41.506;24.938;2023-01-26T05:53:16;93788.72;;;-0.38;88.23
8294;BME280;4185;41.506;24.938;2023-01-26T05:55:44;93783.34;;;-0.34;87.99
8294;BME280;4185;41.506;24.938;2023-01-26T05:58:10;93775.34;;;-0.34;87.70
8294;BME280;4185;41.506;24.938;2023-01-26T06:00:39;93773.13;;;-0.39;87.97
8294;BME280;4185;41.506;24.938;2023-01-26T06:03:06;93764.38;;;-0.40;88.11
8294;BME280;4185;41.506;24.938;2023-01-26T06:05:32;93766.75;;;-0.45;88.91
8294;BME280;4185;41.506;24.938;2023-01-26T06:07:59;93768.28;;;-0.44;89.96
8294;BME280;4185;41.506;24.938;2023-01-26T06:10:26;93764.78;;;-0.41;89.47
8294;BME280;4185;41.506;24.938;2023-01-26T06:12:53;93769.13;;;-0.51;90.37
8294;BME280;4185;41.506;24.938;2023-01-26T06:15:20;93758.81;;;-0.49;89.85
8294;BME280;4185;41.506;24.938;2023-01-26T06:17:48;93760.75;;;-0.49;90.39
8294;BME280;4185;41.506;24.938;2023-01-26T06:20:15;93770.59;;;-0.46;91.15
8294;BME280;4185;41.506;24.938;2023-01-26T06:22:42;93764.84;;;-0.45;91.14
8294;BME280;4185;41.506;24.938;2023-01-26T06:25:08;93756.00;;;-0.42;90.96
8294;BME280;4185;41.506;24.938;2023-01-26T06:27:35;93755.25;;;-0.42;91.16
8294;BME280;4185;41.506;24.938;2023-01-26T06:30:07;93748.78;;;-0.41;90.64
8294;BME280;4185;41.506;24.938;2023-01-26T06:32:34;93746.03;;;-0.38;91.98
8294;BME280;4185;41.506;24.938;2023-01-26T06:35:03;93745.97;;;-0.34;92.89
8294;BME280;4185;41.506;24.938;2023-01-26T06:37:33;93738.72;;;-0.34;92.08
8294;BME280;4185;41.506;24.938;2023-01-26T06:40:00;93740.16;;;-0.29;91.85
8294;BME280;4185;41.506;24.938;2023-01-26T06:42:27;93735.25;;;-0.31;91.87
8294;BME280;4185;41.506;24.938;2023-01-26T06:44:54;93724.56;;;-0.31;91.47
8294;BME280;4185;41.506;24.938;2023-01-26T06:47:23;93732.16;;;-0.29;91.64
8294;BME280;4185;41.506;24.938;2023-01-26T06:49:50;93742.41;;;-0.28;92.34
8294;BME280;4185;41.506;24.938;2023-01-26T06:52:29;93741.25;;;-0.27;93.03
8294;BME280;4185;41.506;24.938;2023-01-26T06:54:57;93724.56;;;-0.31;92.55
8294;BME280;4185;41.506;24.938;2023-01-26T06:57:25;93732.56;;;-0.31;92.28
8294;BME280;4185;41.506;24.938;2023-01-26T06:59:52;93737.09;;;-0.28;92.61
8294;BME280;4185;41.506;24.938;2023-01-26T07:02:21;93722.16;;;-0.25;92.80
8294;BME280;4185;41.506;24.938;2023-01-26T07:04:49;93716.75;;;-0.22;92.60
8294;BME280;4185;41.506;24.938;2023-01-26T07:07:16;93719.34;;;-0.18;92.82
8294;BME280;4185;41.506;24.938;2023-01-26T07:09:44;93717.44;;;-0.18;92.86
8294;BME280;4185;41.506;24.938;2023-01-26T07:12:11;93713.25;;;-0.19;92.91
8294;BME280;4185;41.506;24.938;2023-01-26T07:14:38;93708.25;;;-0.17;92.60
8294;BME280;4185;41.506;24.938;2023-01-26T07:17:05;93716.59;;;-0.15;92.67
8294;BME280;4185;41.506;24.938;2023-01-26T07:19:31;93721.94;;;-0.15;92.88
8294;BME280;4185;41.506;24.938;2023-01-26T07:21:58;93725.38;;;-0.14;92.99
8294;BME280;4185;41.506;24.938;2023-01-26T07:24:25;93726.88;;;-0.13;93.10
8294;BME280;4185;41.506;24.938;2023-01-26T07:26:54;93726.44;;;-0.12;93.38
8294;BME280;4185;41.506;24.938;2023-01-26T07:29:21;93727.56;;;-0.09;93.81
8294;BME280;4185;41.506;24.938;2023-01-26T07:31:48;93737.13;;;-0.12;94.08
8294;BME280;4185;41.506;24.938;2023-01-26T07:34:15;93733.31;;;-0.11;94.10
8294;BME280;4185;41.506;24.938;2023-01-26T07:36:41;93734.81;;;-0.10;94.34
8294;BME280;4185;41.506;24.938;2023-01-26T07:39:09;93731.72;;;-0.08;94.43
8294;BME280;4185;41.506;24.938;2023-01-26T07:41:36;93732.00;;;-0.03;93.91
8294;BME280;4185;41.506;24.938;2023-01-26T07:44:08;93723.16;;;0.00;93.71
8294;BME280;4185;41.506;24.938;2023-01-26T07:46:35;93723.16;;;0.00;93.26
8294;BME280;4185;41.506;24.938;2023-01-26T07:49:02;93718.16;;;0.03;93.36
8294;BME280;4185;41.506;24.938;2023-01-26T07:51:28;93717.81;;;0.00;93.88
8294;BME280;4185;41.506;24.938;2023-01-26T07:53:55;93709.75;;;0.04;93.45
8294;BME280;4185;41.506;24.938;2023-01-26T07:56:23;93710.78;;;0.10;93.00
8294;BME280;4185;41.506;24.938;2023-01-26T07:58:50;93701.50;;;0.15;92.99
8294;BME280;4185;41.506;24.938;2023-01-26T08:01:20;93700.81;;;0.11;93.21
8294;BME280;4185;41.506;24.938;2023-01-26T08:03:49;93697.31;;;0.14;93.28
8294;BME280;4185;41.506;24.938;2023-01-26T08:06:16;93698.44;;;0.16;93.58
8294;BME280;4185;41.506;24.938;2023-01-26T08:08:43;93698.34;;;0.20;93.78
8294;BME280;4185;41.506;24.938;2023-01-26T08:11:11;93691.16;;;0.17;93.98
8294;BME280;4185;41.506;24.938;2023-01-26T08:13:38;93694.66;;;0.14;94.38
8294;BME280;4185;41.506;24.938;2023-01-26T08:16:06;93688.16;;;0.15;94.31
8294;BME280;4185;41.506;24.938;2023-01-26T08:18:38;93693.34;;;0.22;93.74
8294;BME280;4185;41.506;24.938;2023-01-26T08:21:05;93686.00;;;0.26;93.96
8294;BME280;4185;41.506;24.938;2023-01-26T08:23:31;93680.91;;;0.31;94.19
8294;BME280;4185;41.506;24.938;2023-01-26T08:26:00;93682.34;;;0.36;94.46
8294;BME280;4185;41.506;24.938;2023-01-26T08:28:27;93686.88;;;0.39;93.83
8294;BME280;4185;41.506;24.938;2023-01-26T08:30:53;93676.09;;;0.42;93.73
8294;BME280;4185;41.506;24.938;2023-01-26T08:33:20;93674.50;;;0.45;93.64
8294;BME280;4185;41.506;24.938;2023-01-26T08:35:48;93674.94;;;0.43;93.57
8294;BME280;4185;41.506;24.938;2023-01-26T08:38:15;93670.91;;;0.51;93.10
8294;BME280;4185;41.506;24.938;2023-01-26T08:40:42;93674.00;;;0.50;92.96
8294;BME280;4185;41.506;24.938;2023-01-26T08:43:09;93671.00;;;0.48;93.38
8294;BME280;4185;41.506;24.938;2023-01-26T08:45:35;93671.75;;;0.48;93.28
8294;BME280;4185;41.506;24.938;2023-01-26T08:48:03;93666.16;;;0.43;93.22
8294;BME280;4185;41.506;24.938;2023-01-26T08:50:29;93661.66;;;0.40;93.50
8294;BME280;4185;41.506;24.938;2023-01-26T08:52:58;93651.38;;;0.38;94.17
8294;BME280;4185;41.506;24.938;2023-01-26T08:55:24;93653.63;;;0.40;93.91
8294;BME280;4185;41.506;24.938;2023-01-26T08:57:53;93657.28;;;0.46;93.63
8294;BME280;4185;41.506;24.938;2023-01-26T09:00:22;93649.88;;;0.53;93.80
8294;BME280;4185;41.506;24.938;2023-01-26T09:02:49;93650.47;;;0.61;93.72
8294;BME280;4185;41.506;24.938;2023-01-26T09:05:16;93644.72;;;0.62;93.55
8294;BME280;4185;41.506;24.938;2023-01-26T09:07:43;93645.94;;;0.58;93.08
8294;BME280;4185;41.506;24.938;2023-01-26T09:10:11;93639.59;;;0.52;92.82
8294;BME280;4185;41.506;24.938;2023-01-26T09:12:38;93632.66;;;0.54;93.29
8294;BME280;4185;41.506;24.938;2023-01-26T09:15:06;93624.47;;;0.61;93.46
8294;BME280;4185;41.506;24.938;2023-01-26T09:17:33;93621.63;;;0.68;93.34
8294;BME280;4185;41.506;24.938;2023-01-26T09:20:02;93624.22;;;0.72;93.42
8294;BME280;4185;41.506;24.938;2023-01-26T09:22:29;93604.66;;;0.75;93.02
8294;BME280;4185;41.506;24.938;2023-01-26T09:24:56;93602.31;;;0.77;93.39
8294;BME280;4185;41.506;24.938;2023-01-26T09:27:24;93601.47;;;0.80;92.64
8294;BME280;4185;41.506;24.938;2023-01-26T09:29:51;93598.28;;;0.85;93.50
8294;BME280;4185;41.506;24.938;2023-01-26T09:32:18;93591.72;;;0.89;93.62
8294;BME280;4185;41.506;24.938;2023-01-26T09:34:45;93581.56;;;0.97;93.28
8294;BME280;4185;41.506;24.938;2023-01-26T09:37:11;93581.81;;;1.02;92.96
8294;BME280;4185;41.506;24.938;2023-01-26T09:39:38;93585.97;;;1.03;92.23
8294;BME280;4185;41.506;24.938;2023-01-26T09:42:33;93568.09;;;1.00;92.74
8294;BME280;4185;41.506;24.938;2023-01-26T09:45:14;93550.56;;;0.99;92.98
8294;BME280;4185;41.506;24.938;2023-01-26T09:47:54;93549.63;;;1.06;92.64
8294;BME280;4185;41.506;24.938;2023-01-26T09:50:26;93548.09;;;1.05;92.54
8294;BME280;4185;41.506;24.938;2023-01-26T09:52:57;93547.13;;;0.99;92.16
8294;BME280;4185;41.506;24.938;2023-01-26T09:55:26;93543.69;;;0.98;92.93
8294;BME280;4185;41.506;24.938;2023-01-26T09:57:58;93530.56;;;1.04;93.11
8294;BME280;4185;41.506;24.938;2023-01-26T10:00:28;93526.19;;;1.10;93.17
8294;BME280;4185;41.506;24.938;2023-01-26T10:03:05;93523.41;;;1.13;92.93
8294;BME280;4185;41.506;24.938;2023-01-26T10:05:39;93536.06;;;1.13;92.73
8294;BME280;4185;41.506;24.938;2023-01-26T10:08:10;93532.28;;;1.10;92.58
8294;BME280;4185;41.506;24.938;2023-01-26T10:10:42;93526.09;;;1.13;92.71
8294;BME280;4185;41.506;24.938;2023-01-26T10:13:14;93529.53;;;1.14;92.71
8294;BME280;4185;41.506;24.938;2023-01-26T10:15:42;93527.28;;;1.12;92.74
8294;BME280;4185;41.506;24.938;2023-01-26T10:18:16;93528.13;;;1.09;93.56
8294;BME280;4185;41.506;24.938;2023-01-26T10:20:46;93521.34;;;1.05;93.92
8294;BME280;4185;41.506;24.938;2023-01-26T10:23:16;93516.00;;;1.05;94.04
8294;BME280;4185;41.506;24.938;2023-01-26T10:25:46;93513.84;;;1.00;94.13
8294;BME280;4185;41.506;24.938;2023-01-26T10:28:17;93534.19;;;0.97;94.04
8294;BME280;4185;41.506;24.938;2023-01-26T10:30:47;93510.78;;;1.01;94.84
8294;BME280;4185;41.506;24.938;2023-01-26T10:33:17;93505.63;;;1.07;95.25
8294;BME280;4185;41.506;24.938;2023-01-26T10:35:44;93502.78;;;1.14;94.31
8294;BME280;4185;41.506;24.938;2023-01-26T10:38:40;93491.34;;;1.26;94.42
8294;BME280;4185;41.506;24.938;2023-01-26T10:41:23;93482.59;;;1.38;93.71
8294;BME280;4185;41.506;24.938;2023-01-26T10:43:53;93477.56;;;1.40;93.47
8294;BME280;4185;41.506;24.938;2023-01-26T10:46:31;93481.06;;;1.37;92.90
8294;BME280;4185;41.506;24.938;2023-01-26T10:49:00;93478.28;;;1.28;93.86
8294;BME280;4185;41.506;24.938;2023-01-26T10:51:30;93460.94;;;1.33;94.33
8294;BME280;4185;41.506;24.938;2023-01-26T10:54:19;93448.75;;;1.44;94.12
8294;BME280;4185;41.506;24.938;2023-01-26T10:56:49;93448.13;;;1.53;93.40
8294;BME280;4185;41.506;24.938;2023-01-26T10:59:27;93454.88;;;1.57;93.53
8294;BME280;4185;41.506;24.938;2023-01-26T11:01:56;93454.22;;;1.53;93.32
8294;BME280;4185;41.506;24.938;2023-01-26T11:04:25;93446.50;;;1.55;93.51
8294;BME280;4185;41.506;24.938;2023-01-26T11:06:53;93430.69;;;1.61;94.15
8294;BME280;4185;41.506;24.938;2023-01-26T11:09:25;93423.47;;;1.58;93.99
8294;BME280;4185;41.506;24.938;2023-01-26T11:11:57;93429.16;;;1.60;93.54
8294;BME280;4185;41.506;24.938;2023-01-26T11:14:26;93423.59;;;1.54;94.06
8294;BME280;4185;41.506;24.938;2023-01-26T11:16:59;93419.53;;;1.50;94.06
8294;BME280;4185;41.506;24.938;2023-01-26T11:19:49;93416.53;;;1.48;95.05
8294;BME280;4185;41.506;24.938;2023-01-26T11:22:23;93415.81;;;1.47;95.17
8294;BME280;4185;41.506;24.938;2023-01-26T11:24:59;93409.25;;;1.48;95.45
8294;BME280;4185;41.506;24.938;2023-01-26T11:27:38;93378.22;;;1.38;96.01
8294;BME280;4185;41.506;24.938;2023-01-26T11:30:32;93382.38;;;1.52;96.00
8294;BME280;4185;41.506;24.938;2023-01-26T11:33:07;93369.63;;;1.56;95.75
8294;BME280;4185;41.506;24.938;2023-01-26T11:35:47;93371.34;;;1.62;95.92
8294;BME280;4185;41.506;24.938;2023-01-26T11:38:35;93374.03;;;1.62;95.69
8294;BME280;4185;41.506;24.938;2023-01-26T11:41:14;93367.16;;;1.61;95.28
8294;BME280;4185;41.506;24.938;2023-01-26T11:44:15;93363.75;;;1.61;95.48
8294;BME280;4185;41.506;24.938;2023-01-26T11:46:54;93355.28;;;1.62;95.51
8294;BME280;4185;41.506;24.938;2023-01-26T11:49:34;93357.09;;;1.65;95.49
8294;BME280;4185;41.506;24.938;2023-01-26T11:52:10;93354.44;;;1.65;95.53
8294;BME280;4185;41.506;24.938;2023-01-26T11:54:57;93348.31;;;1.65;96.07
8294;BME280;4185;41.506;24.938;2023-01-26T11:57:33;93344.03;;;1.67;95.38
8294;BME280;4185;41.506;24.938;2023-01-26T12:00:07;93338.69;;;1.67;95.46
8294;BME280;4185;41.506;24.938;2023-01-26T12:02:42;93342.84;;;1.68;95.45
8294;BME280;4185;41.506;24.938;2023-01-26T12:05:14;93344.22;;;1.73;96.04
8294;BME280;4185;41.506;24.938;2023-01-26T12:07:50;93342.94;;;1.77;95.63
8294;BME280;4185;41.506;24.938;2023-01-26T12:10:23;93349.69;;;1.69;95.65
8294;BME280;4185;41.506;24.938;2023-01-26T12:12:56;93363.31;;;1.62;96.25
8294;BME280;4185;41.506;24.938;2023-01-26T12:15:26;93354.66;;;1.58;96.72
8294;BME280;4185;41.506;24.938;2023-01-26T12:18:00;93368.47;;;1.57;96.69
8294;BME280;4185;41.506;24.938;2023-01-26T12:20:36;93358.63;;;1.54;97.00
8294;BME280;4185;41.506;24.938;2023-01-26T12:23:10;93363.13;;;1.57;96.89
8294;BME280;4185;41.506;24.938;2023-01-26T12:25:41;93355.41;;;1.59;97.01
8294;BME280;4185;41.506;24.938;2023-01-26T12:28:15;93347.56;;;1.64;97.35
8294;BME280;4185;41.506;24.938;2023-01-26T12:30:54;93348.97;;;1.69;97.57
8294;BME280;4185;41.506;24.938;2023-01-26T12:33:24;93338.13;;;1.72;96.69
8294;BME280;4185;41.506;24.938;2023-01-26T12:36:25;93329.78;;;1.70;97.13
8294;BME280;4185;41.506;24.938;2023-01-26T12:39:08;93333.94;;;1.71;97.10
8294;BME280;4185;41.506;24.938;2023-01-26T12:42:09;93329.34;;;1.72;97.56
8294;BME280;4185;41.506;24.938;2023-01-26T12:44:41;93331.25;;;1.71;97.41
8294;BME280;4185;41.506;24.938;2023-01-26T12:47:14;93328.16;;;1.73;97.82
8294;BME280;4185;41.506;24.938;2023-01-26T12:49:49;93319.41;;;1.72;98.30
8294;BME280;4185;41.506;24.938;2023-01-26T12:52:22;93320.88;;;1.73;98.60
8294;BME280;4185;41.506;24.938;2023-01-26T12:54:56;93303.63;;;1.74;98.37
8294;BME280;4185;41.506;24.938;2023-01-26T12:57:28;93307.38;;;1.77;98.53
8294;BME280;4185;41.506;24.938;2023-01-26T13:00:03;93300.72;;;1.81;98.26
8294;BME280;4185;41.506;24.938;2023-01-26T13:02:33;93297.19;;;1.84;98.36
8294;BME280;4185;41.506;24.938;2023-01-26T13:05:03;93297.19;;;1.84;98.39
8294;BME280;4185;41.506;24.938;2023-01-26T13:07:33;93291.84;;;1.84;98.67
8294;BME280;4185;41.506;24.938;2023-01-26T13:12:51;93276.63;;;1.81;98.20
8294;BME280;4185;41.506;24.938;2023-01-26T13:15:20;93270.41;;;1.84;98.90
8294;BME280;4185;41.506;24.938;2023-01-26T13:17:50;93271.88;;;1.85;98.11
8294;BME280;4185;41.506;24.938;2023-01-26T13:23:43;93255.69;;;1.89;98.06
8294;BME280;4185;41.506;24.938;2023-01-26T13:26:15;93260.31;;;1.88;98.16
8294;BME280;4185;41.506;24.938;2023-01-26T13:28:43;93262.78;;;1.83;98.42
8294;BME280;4185;41.506;24.938;2023-01-26T13:31:12;93255.94;;;1.82;99.20
8294;BME280;4185;41.506;24.938;2023-01-26T13:33:40;93243.00;;;1.80;99.60
8294;BME280;4185;41.506;24.938;2023-01-26T13:36:17;93241.75;;;1.72;100.00
8294;BME280;4185;41.506;24.938;2023-01-26T13:38:54;93230.94;;;1.76;100.00
8294;BME280;4185;41.506;24.938;2023-01-26T13:41:24;93223.06;;;1.81;99.72